Sign in

Advertising

Advertising

Info

Aviation weather - KDAB

METAR KDAB 021153Z 18004KT 10SM FEW055 SCT130 BKN250 26/25 A3009 RMK AO2 SLP188 70007 T02610250 10261 20250 53015

TAF KDAB 021120Z 0212/0312 16003KT P6SM FEW040 SCT130 BKN250 FM021400 21006KT P6SM FEW030 SCT250 FM021800 11007KT P6SM VCTS SCT030CB BKN100 FM030000 21003KT P6SM BKN120

Aviation weather from ADDS. Re-check weather before flight.

-